sensor_id;sensor_type;location;lat;lon;timestamp;P1;durP1;ratioP1;P2;durP2;ratioP2
17382;SDS011;8809;51.892;8.384;2023-11-21T00:00:15;6.10;;;5.00;;
17382;SDS011;8809;51.892;8.384;2023-11-21T00:02:43;5.43;;;4.32;;
17382;SDS011;8809;51.892;8.384;2023-11-21T00:05:12;6.07;;;5.13;;
17382;SDS011;8809;51.892;8.384;2023-11-21T00:07:40;6.55;;;4.68;;
17382;SDS011;8809;51.892;8.384;2023-11-21T00:10:08;7.32;;;6.10;;
17382;SDS011;8809;51.892;8.384;2023-11-21T00:12:36;6.80;;;5.50;;
17382;SDS011;8809;51.892;8.384;2023-11-21T00:15:04;6.90;;;5.88;;
17382;SDS011;8809;51.892;8.384;2023-11-21T00:17:36;8.73;;;6.60;;
17382;SDS011;8809;51.892;8.384;2023-11-21T00:20:04;7.00;;;6.30;;
17382;SDS011;8809;51.892;8.384;2023-11-21T00:22:32;7.75;;;5.95;;
17382;SDS011;8809;51.892;8.384;2023-11-21T00:24:59;7.15;;;5.70;;
17382;SDS011;8809;51.892;8.384;2023-11-21T00:27:26;7.15;;;5.68;;
17382;SDS011;8809;51.892;8.384;2023-11-21T00:29:53;6.55;;;5.47;;
17382;SDS011;8809;51.892;8.384;2023-11-21T00:32:20;8.43;;;5.78;;
17382;SDS011;8809;51.892;8.384;2023-11-21T00:34:58;7.25;;;5.20;;
17382;SDS011;8809;51.892;8.384;2023-11-21T00:37:26;7.72;;;5.13;;
17382;SDS011;8809;51.892;8.384;2023-11-21T00:39:57;5.68;;;4.32;;
17382;SDS011;8809;51.892;8.384;2023-11-21T00:42:24;4.93;;;4.20;;
17382;SDS011;8809;51.892;8.384;2023-11-21T00:44:51;5.55;;;4.40;;
17382;SDS011;8809;51.892;8.384;2023-11-21T00:47:18;5.85;;;5.03;;
17382;SDS011;8809;51.892;8.384;2023-11-21T00:49:46;4.80;;;4.30;;
17382;SDS011;8809;51.892;8.384;2023-11-21T00:52:15;6.72;;;5.05;;
17382;SDS011;8809;51.892;8.384;2023-11-21T00:54:42;5.07;;;4.57;;
17382;SDS011;8809;51.892;8.384;2023-11-21T00:57:10;6.38;;;5.43;;
17382;SDS011;8809;51.892;8.384;2023-11-21T00:59:37;6.10;;;5.18;;
17382;SDS011;8809;51.892;8.384;2023-11-21T01:02:05;6.55;;;5.28;;
17382;SDS011;8809;51.892;8.384;2023-11-21T01:04:35;6.03;;;4.75;;
17382;SDS011;8809;51.892;8.384;2023-11-21T01:07:03;6.38;;;4.63;;
17382;SDS011;8809;51.892;8.384;2023-11-21T01:09:32;5.40;;;4.88;;
17382;SDS011;8809;51.892;8.384;2023-11-21T01:11:59;6.18;;;4.78;;
17382;SDS011;8809;51.892;8.384;2023-11-21T01:14:26;6.03;;;4.70;;
17382;SDS011;8809;51.892;8.384;2023-11-21T01:16:53;4.68;;;4.28;;
17382;SDS011;8809;51.892;8.384;2023-11-21T01:19:20;6.45;;;5.18;;
17382;SDS011;8809;51.892;8.384;2023-11-21T01:21:47;5.05;;;4.55;;
17382;SDS011;8809;51.892;8.384;2023-11-21T01:24:15;6.38;;;5.28;;
17382;SDS011;8809;51.892;8.384;2023-11-21T01:26:42;7.50;;;5.88;;
17382;SDS011;8809;51.892;8.384;2023-11-21T01:29:12;6.75;;;5.75;;
17382;SDS011;8809;51.892;8.384;2023-11-21T01:31:38;6.70;;;5.80;;
17382;SDS011;8809;51.892;8.384;2023-11-21T01:34:09;8.82;;;6.85;;
17382;SDS011;8809;51.892;8.384;2023-11-21T01:36:36;8.38;;;6.45;;
17382;SDS011;8809;51.892;8.384;2023-11-21T01:39:03;7.97;;;5.70;;
17382;SDS011;8809;51.892;8.384;2023-11-21T01:41:34;6.70;;;5.15;;
17382;SDS011;8809;51.892;8.384;2023-11-21T01:44:03;6.10;;;5.43;;
17382;SDS011;8809;51.892;8.384;2023-11-21T01:46:33;6.57;;;5.88;;
17382;SDS011;8809;51.892;8.384;2023-11-21T01:49:00;6.65;;;5.35;;
17382;SDS011;8809;51.892;8.384;2023-11-21T01:51:28;6.10;;;5.32;;
17382;SDS011;8809;51.892;8.384;2023-11-21T01:53:57;4.93;;;4.22;;
17382;SDS011;8809;51.892;8.384;2023-11-21T01:56:24;8.15;;;6.55;;
17382;SDS011;8809;51.892;8.384;2023-11-21T01:58:52;7.57;;;6.55;;
17382;SDS011;8809;51.892;8.384;2023-11-21T02:01:22;7.18;;;6.20;;
17382;SDS011;8809;51.892;8.384;2023-11-21T02:03:49;7.70;;;5.60;;
17382;SDS011;8809;51.892;8.384;2023-11-21T02:06:16;8.32;;;6.45;;
17382;SDS011;8809;51.892;8.384;2023-11-21T02:08:44;6.28;;;5.68;;
17382;SDS011;8809;51.892;8.384;2023-11-21T02:11:11;6.88;;;5.88;;
17382;SDS011;8809;51.892;8.384;2023-11-21T02:13:39;9.60;;;7.32;;
17382;SDS011;8809;51.892;8.384;2023-11-21T02:16:08;7.85;;;6.75;;
17382;SDS011;8809;51.892;8.384;2023-11-21T02:18:39;7.60;;;6.10;;
17382;SDS011;8809;51.892;8.384;2023-11-21T02:21:07;10.63;;;9.52;;
17382;SDS011;8809;51.892;8.384;2023-11-21T02:23:37;9.70;;;8.18;;
17382;SDS011;8809;51.892;8.384;2023-11-21T02:26:07;9.65;;;6.72;;
17382;SDS011;8809;51.892;8.384;2023-11-21T02:28:35;8.65;;;6.78;;
17382;SDS011;8809;51.892;8.384;2023-11-21T02:31:04;9.00;;;6.57;;
17382;SDS011;8809;51.892;8.384;2023-11-21T02:33:31;7.18;;;5.63;;
17382;SDS011;8809;51.892;8.384;2023-11-21T02:35:59;7.68;;;6.78;;
17382;SDS011;8809;51.892;8.384;2023-11-21T02:38:26;9.10;;;7.35;;
17382;SDS011;8809;51.892;8.384;2023-11-21T02:40:55;8.57;;;7.30;;
17382;SDS011;8809;51.892;8.384;2023-11-21T02:43:23;9.80;;;8.80;;
17382;SDS011;8809;51.892;8.384;2023-11-21T02:45:50;8.77;;;7.47;;
17382;SDS011;8809;51.892;8.384;2023-11-21T02:48:17;9.07;;;7.00;;
17382;SDS011;8809;51.892;8.384;2023-11-21T02:50:44;8.43;;;7.45;;
17382;SDS011;8809;51.892;8.384;2023-11-21T02:53:11;10.30;;;6.75;;
17382;SDS011;8809;51.892;8.384;2023-11-21T02:55:40;6.82;;;5.80;;
17382;SDS011;8809;51.892;8.384;2023-11-21T02:58:08;6.50;;;5.30;;
17382;SDS011;8809;51.892;8.384;2023-11-21T03:00:35;7.45;;;6.22;;
17382;SDS011;8809;51.892;8.384;2023-11-21T03:03:02;7.55;;;6.20;;
17382;SDS011;8809;51.892;8.384;2023-11-21T03:05:30;9.90;;;7.82;;
17382;SDS011;8809;51.892;8.384;2023-11-21T03:07:57;8.38;;;7.43;;
17382;SDS011;8809;51.892;8.384;2023-11-21T03:10:24;8.93;;;7.28;;
17382;SDS011;8809;51.892;8.384;2023-11-21T03:12:53;8.65;;;6.63;;
17382;SDS011;8809;51.892;8.384;2023-11-21T03:15:21;12.27;;;10.25;;
17382;SDS011;8809;51.892;8.384;2023-11-21T03:17:48;19.73;;;13.18;;
17382;SDS011;8809;51.892;8.384;2023-11-21T03:20:16;12.80;;;9.68;;
17382;SDS011;8809;51.892;8.384;2023-11-21T03:22:43;10.90;;;9.27;;
17382;SDS011;8809;51.892;8.384;2023-11-21T03:25:10;14.52;;;10.75;;
17382;SDS011;8809;51.892;8.384;2023-11-21T03:27:37;14.43;;;10.23;;
17382;SDS011;8809;51.892;8.384;2023-11-21T03:30:07;16.05;;;11.50;;
17382;SDS011;8809;51.892;8.384;2023-11-21T03:32:37;15.75;;;11.98;;
17382;SDS011;8809;51.892;8.384;2023-11-21T03:35:04;12.52;;;10.60;;
17382;SDS011;8809;51.892;8.384;2023-11-21T03:37:32;18.90;;;13.05;;
17382;SDS011;8809;51.892;8.384;2023-11-21T03:39:59;11.35;;;9.07;;
17382;SDS011;8809;51.892;8.384;2023-11-21T03:42:29;10.77;;;9.38;;
17382;SDS011;8809;51.892;8.384;2023-11-21T03:44:56;10.95;;;8.35;;
17382;SDS011;8809;51.892;8.384;2023-11-21T03:47:23;9.23;;;8.25;;
17382;SDS011;8809;51.892;8.384;2023-11-21T03:49:51;10.30;;;8.57;;
17382;SDS011;8809;51.892;8.384;2023-11-21T03:52:18;10.45;;;8.55;;
17382;SDS011;8809;51.892;8.384;2023-11-21T03:54:46;10.73;;;8.52;;
17382;SDS011;8809;51.892;8.384;2023-11-21T03:57:13;9.57;;;7.68;;
17382;SDS011;8809;51.892;8.384;2023-11-21T03:59:40;9.32;;;7.13;;
17382;SDS011;8809;51.892;8.384;2023-11-21T04:02:07;9.32;;;7.22;;
17382;SDS011;8809;51.892;8.384;2023-11-21T04:04:34;8.40;;;6.38;;
17382;SDS011;8809;51.892;8.384;2023-11-21T04:07:03;8.73;;;6.45;;
17382;SDS011;8809;51.892;8.384;2023-11-21T04:09:31;8.85;;;7.20;;
17382;SDS011;8809;51.892;8.384;2023-11-21T04:11:58;9.23;;;7.65;;
17382;SDS011;8809;51.892;8.384;2023-11-21T04:14:25;11.50;;;8.93;;
17382;SDS011;8809;51.892;8.384;2023-11-21T04:16:52;9.70;;;7.88;;
17382;SDS011;8809;51.892;8.384;2023-11-21T04:19:21;13.73;;;9.70;;
17382;SDS011;8809;51.892;8.384;2023-11-21T04:21:48;10.05;;;7.57;;
17382;SDS011;8809;51.892;8.384;2023-11-21T04:24:16;10.75;;;8.85;;
17382;SDS011;8809;51.892;8.384;2023-11-21T04:26:43;12.45;;;8.43;;
17382;SDS011;8809;51.892;8.384;2023-11-21T04:29:11;10.48;;;8.65;;
17382;SDS011;8809;51.892;8.384;2023-11-21T04:31:38;8.55;;;7.40;;
17382;SDS011;8809;51.892;8.384;2023-11-21T04:34:05;8.93;;;8.02;;
17382;SDS011;8809;51.892;8.384;2023-11-21T04:36:32;8.38;;;7.50;;
17382;SDS011;8809;51.892;8.384;2023-11-21T04:39:00;7.50;;;6.43;;
17382;SDS011;8809;51.892;8.384;2023-11-21T04:41:29;10.05;;;6.47;;
17382;SDS011;8809;51.892;8.384;2023-11-21T04:43:57;7.70;;;5.70;;
17382;SDS011;8809;51.892;8.384;2023-11-21T04:46:24;7.20;;;5.80;;
17382;SDS011;8809;51.892;8.384;2023-11-21T04:48:51;10.10;;;6.22;;
17382;SDS011;8809;51.892;8.384;2023-11-21T04:51:20;6.05;;;4.97;;
17382;SDS011;8809;51.892;8.384;2023-11-21T04:53:47;5.90;;;4.97;;
17382;SDS011;8809;51.892;8.384;2023-11-21T04:56:14;6.25;;;5.13;;
17382;SDS011;8809;51.892;8.384;2023-11-21T04:58:44;8.65;;;6.63;;
17382;SDS011;8809;51.892;8.384;2023-11-21T05:01:12;5.63;;;5.07;;
17382;SDS011;8809;51.892;8.384;2023-11-21T05:03:39;6.53;;;5.82;;
17382;SDS011;8809;51.892;8.384;2023-11-21T05:06:06;8.20;;;6.30;;
17382;SDS011;8809;51.892;8.384;2023-11-21T05:08:35;6.68;;;5.38;;
17382;SDS011;8809;51.892;8.384;2023-11-21T05:11:03;8.00;;;6.00;;
17382;SDS011;8809;51.892;8.384;2023-11-21T05:13:33;6.70;;;5.57;;
17382;SDS011;8809;51.892;8.384;2023-11-21T05:16:02;9.68;;;8.18;;
17382;SDS011;8809;51.892;8.384;2023-11-21T05:18:32;11.30;;;8.13;;
17382;SDS011;8809;51.892;8.384;2023-11-21T05:20:59;7.82;;;6.55;;
17382;SDS011;8809;51.892;8.384;2023-11-21T05:23:27;8.07;;;5.93;;
17382;SDS011;8809;51.892;8.384;2023-11-21T05:25:54;6.80;;;5.55;;
17382;SDS011;8809;51.892;8.384;2023-11-21T05:28:22;7.30;;;6.05;;
17382;SDS011;8809;51.892;8.384;2023-11-21T05:30:49;6.82;;;5.35;;
17382;SDS011;8809;51.892;8.384;2023-11-21T05:33:17;6.60;;;5.30;;
17382;SDS011;8809;51.892;8.384;2023-11-21T05:35:45;8.15;;;5.97;;
17382;SDS011;8809;51.892;8.384;2023-11-21T05:38:13;6.68;;;5.20;;
17382;SDS011;8809;51.892;8.384;2023-11-21T05:40:40;12.38;;;9.85;;
17382;SDS011;8809;51.892;8.384;2023-11-21T05:43:09;9.48;;;7.65;;
17382;SDS011;8809;51.892;8.384;2023-11-21T05:45:37;8.23;;;6.57;;
17382;SDS011;8809;51.892;8.384;2023-11-21T05:48:04;9.20;;;7.22;;
17382;SDS011;8809;51.892;8.384;2023-11-21T05:50:33;10.82;;;8.18;;
17382;SDS011;8809;51.892;8.384;2023-11-21T05:53:00;11.80;;;9.18;;
17382;SDS011;8809;51.892;8.384;2023-11-21T05:55:27;12.35;;;10.93;;
17382;SDS011;8809;51.892;8.384;2023-11-21T05:57:54;15.15;;;10.95;;
17382;SDS011;8809;51.892;8.384;2023-11-21T06:00:21;13.93;;;10.30;;
17382;SDS011;8809;51.892;8.384;2023-11-21T06:02:50;12.25;;;9.75;;
17382;SDS011;8809;51.892;8.384;2023-11-21T06:05:19;11.90;;;8.73;;
17382;SDS011;8809;51.892;8.384;2023-11-21T06:07:49;12.98;;;10.25;;
17382;SDS011;8809;51.892;8.384;2023-11-21T06:10:17;9.95;;;8.07;;
17382;SDS011;8809;51.892;8.384;2023-11-21T06:12:46;9.48;;;7.78;;
17382;SDS011;8809;51.892;8.384;2023-11-21T06:15:13;8.88;;;6.85;;
17382;SDS011;8809;51.892;8.384;2023-11-21T06:17:42;9.48;;;8.23;;
17382;SDS011;8809;51.892;8.384;2023-11-21T06:20:10;10.02;;;8.05;;
17382;SDS011;8809;51.892;8.384;2023-11-21T06:22:40;11.52;;;9.77;;
17382;SDS011;8809;51.892;8.384;2023-11-21T06:25:10;10.50;;;7.75;;
17382;SDS011;8809;51.892;8.384;2023-11-21T06:27:38;9.45;;;7.10;;
17382;SDS011;8809;51.892;8.384;2023-11-21T06:30:06;9.40;;;7.25;;
17382;SDS011;8809;51.892;8.384;2023-11-21T06:32:35;9.13;;;6.90;;
17382;SDS011;8809;51.892;8.384;2023-11-21T06:35:02;9.82;;;7.00;;
17382;SDS011;8809;51.892;8.384;2023-11-21T06:37:30;7.95;;;6.55;;
17382;SDS011;8809;51.892;8.384;2023-11-21T06:39:58;7.72;;;6.70;;
17382;SDS011;8809;51.892;8.384;2023-11-21T06:42:27;7.82;;;6.10;;
17382;SDS011;8809;51.892;8.384;2023-11-21T06:44:55;8.88;;;7.30;;
17382;SDS011;8809;51.892;8.384;2023-11-21T06:47:23;11.70;;;8.82;;
17382;SDS011;8809;51.892;8.384;2023-11-21T06:49:51;12.85;;;9.93;;
17382;SDS011;8809;51.892;8.384;2023-11-21T06:52:19;9.98;;;6.85;;
17382;SDS011;8809;51.892;8.384;2023-11-21T06:54:47;13.70;;;9.52;;
17382;SDS011;8809;51.892;8.384;2023-11-21T06:57:16;16.35;;;10.65;;
17382;SDS011;8809;51.892;8.384;2023-11-21T06:59:45;11.80;;;9.50;;
17382;SDS011;8809;51.892;8.384;2023-11-21T07:02:12;10.40;;;8.70;;
17382;SDS011;8809;51.892;8.384;2023-11-21T07:04:39;11.73;;;8.55;;
17382;SDS011;8809;51.892;8.384;2023-11-21T07:07:06;8.73;;;7.00;;
17382;SDS011;8809;51.892;8.384;2023-11-21T07:09:33;7.80;;;6.00;;
17382;SDS011;8809;51.892;8.384;2023-11-21T07:12:00;7.53;;;6.25;;
17382;SDS011;8809;51.892;8.384;2023-11-21T07:14:29;8.20;;;6.35;;
17382;SDS011;8809;51.892;8.384;2023-11-21T07:16:58;8.27;;;6.50;;
17382;SDS011;8809;51.892;8.384;2023-11-21T07:19:26;8.27;;;6.47;;
17382;SDS011;8809;51.892;8.384;2023-11-21T07:21:53;9.40;;;6.95;;
17382;SDS011;8809;51.892;8.384;2023-11-21T07:24:20;11.30;;;9.43;;
17382;SDS011;8809;51.892;8.384;2023-11-21T07:26:48;16.80;;;11.30;;
17382;SDS011;8809;51.892;8.384;2023-11-21T07:29:15;13.50;;;9.70;;
17382;SDS011;8809;51.892;8.384;2023-11-21T07:31:43;16.05;;;10.88;;
17382;SDS011;8809;51.892;8.384;2023-11-21T07:34:11;18.92;;;12.02;;
17382;SDS011;8809;51.892;8.384;2023-11-21T07:36:39;12.75;;;9.20;;
17382;SDS011;8809;51.892;8.384;2023-11-21T07:39:06;14.70;;;9.80;;
17382;SDS011;8809;51.892;8.384;2023-11-21T07:41:33;13.52;;;9.35;;
17382;SDS011;8809;51.892;8.384;2023-11-21T07:44:00;13.80;;;9.32;;
17382;SDS011;8809;51.892;8.384;2023-11-21T07:46:28;23.88;;;15.43;;
17382;SDS011;8809;51.892;8.384;2023-11-21T07:48:55;14.95;;;11.38;;
17382;SDS011;8809;51.892;8.384;2023-11-21T07:51:26;18.77;;;12.20;;
17382;SDS011;8809;51.892;8.384;2023-11-21T07:53:53;25.10;;;16.63;;
17382;SDS011;8809;51.892;8.384;2023-11-21T07:56:20;19.33;;;12.30;;
17382;SDS011;8809;51.892;8.384;2023-11-21T07:58:47;25.13;;;16.90;;
17382;SDS011;8809;51.892;8.384;2023-11-21T08:01:15;24.20;;;15.55;;
17382;SDS011;8809;51.892;8.384;2023-11-21T08:03:43;22.15;;;13.75;;
17382;SDS011;8809;51.892;8.384;2023-11-21T08:06:10;26.00;;;15.48;;
17382;SDS011;8809;51.892;8.384;2023-11-21T08:08:39;24.25;;;13.55;;
17382;SDS011;8809;51.892;8.384;2023-11-21T08:11:06;21.38;;;12.32;;
17382;SDS011;8809;51.892;8.384;2023-11-21T08:13:35;20.08;;;13.07;;
17382;SDS011;8809;51.892;8.384;2023-11-21T08:16:02;21.70;;;13.45;;
17382;SDS011;8809;51.892;8.384;2023-11-21T08:18:32;22.48;;;12.93;;
17382;SDS011;8809;51.892;8.384;2023-11-21T08:21:00;18.58;;;12.82;;
17382;SDS011;8809;51.892;8.384;2023-11-21T08:23:28;21.75;;;13.95;;
17382;SDS011;8809;51.892;8.384;2023-11-21T08:25:57;23.30;;;13.75;;
17382;SDS011;8809;51.892;8.384;2023-11-21T08:28:24;23.20;;;14.02;;
17382;SDS011;8809;51.892;8.384;2023-11-21T08:30:52;23.20;;;13.65;;
17382;SDS011;8809;51.892;8.384;2023-11-21T08:33:19;20.48;;;14.38;;
17382;SDS011;8809;51.892;8.384;2023-11-21T08:35:47;22.33;;;14.40;;
17382;SDS011;8809;51.892;8.384;2023-11-21T08:38:14;17.17;;;11.27;;
17382;SDS011;8809;51.892;8.384;2023-11-21T08:40:41;22.58;;;13.68;;
17382;SDS011;8809;51.892;8.384;2023-11-21T08:43:09;29.73;;;17.63;;
17382;SDS011;8809;51.892;8.384;2023-11-21T08:45:37;22.40;;;13.55;;
17382;SDS011;8809;51.892;8.384;2023-11-21T08:48:04;26.67;;;17.33;;
17382;SDS011;8809;51.892;8.384;2023-11-21T08:50:32;20.55;;;13.05;;
17382;SDS011;8809;51.892;8.384;2023-11-21T08:52:59;23.23;;;13.68;;
17382;SDS011;8809;51.892;8.384;2023-11-21T08:55:27;22.77;;;14.60;;
17382;SDS011;8809;51.892;8.384;2023-11-21T08:57:54;26.73;;;14.00;;
17382;SDS011;8809;51.892;8.384;2023-11-21T09:00:25;23.63;;;13.20;;
17382;SDS011;8809;51.892;8.384;2023-11-21T09:02:52;33.20;;;18.55;;
17382;SDS011;8809;51.892;8.384;2023-11-21T09:05:19;29.25;;;14.88;;
17382;SDS011;8809;51.892;8.384;2023-11-21T09:07:46;24.17;;;13.40;;
17382;SDS011;8809;51.892;8.384;2023-11-21T09:10:14;22.05;;;13.30;;
17382;SDS011;8809;51.892;8.384;2023-11-21T09:12:41;25.08;;;15.15;;
17382;SDS011;8809;51.892;8.384;2023-11-21T09:15:08;20.88;;;12.80;;
17382;SDS011;8809;51.892;8.384;2023-11-21T09:17:38;26.23;;;15.77;;
17382;SDS011;8809;51.892;8.384;2023-11-21T09:20:06;21.02;;;12.90;;
17382;SDS011;8809;51.892;8.384;2023-11-21T09:22:42;22.95;;;12.35;;
17382;SDS011;8809;51.892;8.384;2023-11-21T09:25:11;18.30;;;11.05;;
17382;SDS011;8809;51.892;8.384;2023-11-21T09:27:38;24.60;;;13.63;;
17382;SDS011;8809;51.892;8.384;2023-11-21T09:30:06;24.95;;;14.68;;
17382;SDS011;8809;51.892;8.384;2023-11-21T09:32:35;19.70;;;11.25;;
17382;SDS011;8809;51.892;8.384;2023-11-21T09:35:04;18.13;;;10.73;;
17382;SDS011;8809;51.892;8.384;2023-11-21T09:37:33;13.77;;;9.45;;
17382;SDS011;8809;51.892;8.384;2023-11-21T09:40:01;19.27;;;11.50;;
17382;SDS011;8809;51.892;8.384;2023-11-21T09:42:32;16.38;;;10.40;;
17382;SDS011;8809;51.892;8.384;2023-11-21T09:45:03;19.73;;;10.75;;
17382;SDS011;8809;51.892;8.384;2023-11-21T09:47:42;16.98;;;10.88;;
17382;SDS011;8809;51.892;8.384;2023-11-21T09:50:11;17.17;;;10.52;;
17382;SDS011;8809;51.892;8.384;2023-11-21T09:52:44;13.82;;;8.77;;
17382;SDS011;8809;51.892;8.384;2023-11-21T09:55:20;16.45;;;9.35;;
17382;SDS011;8809;51.892;8.384;2023-11-21T09:57:49;14.32;;;9.00;;
17382;SDS011;8809;51.892;8.384;2023-11-21T10:00:16;13.93;;;8.60;;
17382;SDS011;8809;51.892;8.384;2023-11-21T10:02:48;14.60;;;9.00;;
17382;SDS011;8809;51.892;8.384;2023-11-21T10:05:17;17.00;;;10.15;;
17382;SDS011;8809;51.892;8.384;2023-11-21T10:07:48;19.77;;;10.73;;
17382;SDS011;8809;51.892;8.384;2023-11-21T10:10:18;16.23;;;9.38;;
17382;SDS011;8809;51.892;8.384;2023-11-21T10:12:49;16.48;;;9.93;;
17382;SDS011;8809;51.892;8.384;2023-11-21T10:15:21;18.52;;;10.95;;
17382;SDS011;8809;51.892;8.384;2023-11-21T10:17:50;17.45;;;8.82;;
17382;SDS011;8809;51.892;8.384;2023-11-21T10:20:22;16.33;;;10.40;;
17382;SDS011;8809;51.892;8.384;2023-11-21T10:22:51;15.75;;;9.73;;
17382;SDS011;8809;51.892;8.384;2023-11-21T10:25:18;13.82;;;8.15;;
17382;SDS011;8809;51.892;8.384;2023-11-21T10:27:47;17.80;;;10.10;;
17382;SDS011;8809;51.892;8.384;2023-11-21T10:30:16;13.90;;;9.10;;
17382;SDS011;8809;51.892;8.384;2023-11-21T10:32:43;14.20;;;8.65;;
17382;SDS011;8809;51.892;8.384;2023-11-21T10:35:13;12.02;;;8.45;;
17382;SDS011;8809;51.892;8.384;2023-11-21T10:37:42;10.45;;;6.82;;
17382;SDS011;8809;51.892;8.384;2023-11-21T10:40:10;11.02;;;7.95;;
17382;SDS011;8809;51.892;8.384;2023-11-21T10:42:38;12.43;;;8.05;;
17382;SDS011;8809;51.892;8.384;2023-11-21T10:45:06;13.65;;;8.63;;
17382;SDS011;8809;51.892;8.384;2023-11-21T10:47:41;12.60;;;7.50;;
17382;SDS011;8809;51.892;8.384;2023-11-21T10:50:09;11.40;;;7.20;;
17382;SDS011;8809;51.892;8.384;2023-11-21T10:52:36;10.73;;;6.65;;
17382;SDS011;8809;51.892;8.384;2023-11-21T10:55:18;12.63;;;8.07;;
17382;SDS011;8809;51.892;8.384;2023-11-21T10:57:48;8.85;;;6.75;;
17382;SDS011;8809;51.892;8.384;2023-11-21T11:00:17;9.45;;;6.57;;
17382;SDS011;8809;51.892;8.384;2023-11-21T11:02:46;11.80;;;7.57;;
17382;SDS011;8809;51.892;8.384;2023-11-21T11:05:16;11.45;;;7.57;;
17382;SDS011;8809;51.892;8.384;2023-11-21T11:07:46;11.85;;;7.53;;
17382;SDS011;8809;51.892;8.384;2023-11-21T11:10:21;13.02;;;8.25;;
17382;SDS011;8809;51.892;8.384;2023-11-21T11:12:51;11.85;;;7.85;;
17382;SDS011;8809;51.892;8.384;2023-11-21T11:15:20;11.63;;;7.55;;
17382;SDS011;8809;51.892;8.384;2023-11-21T11:17:50;10.55;;;7.43;;
17382;SDS011;8809;51.892;8.384;2023-11-21T11:20:22;8.75;;;5.53;;
17382;SDS011;8809;51.892;8.384;2023-11-21T11:22:59;7.65;;;5.60;;
17382;SDS011;8809;51.892;8.384;2023-11-21T11:25:44;12.15;;;7.32;;
17382;SDS011;8809;51.892;8.384;2023-11-21T11:28:20;9.70;;;6.72;;
17382;SDS011;8809;51.892;8.384;2023-11-21T11:30:57;11.38;;;6.80;;
17382;SDS011;8809;51.892;8.384;2023-11-21T11:33:33;11.35;;;7.30;;
17382;SDS011;8809;51.892;8.384;2023-11-21T11:36:06;9.90;;;6.15;;
17382;SDS011;8809;51.892;8.384;2023-11-21T11:38:44;11.65;;;6.35;;
17382;SDS011;8809;51.892;8.384;2023-11-21T11:41:23;9.07;;;5.90;;
17382;SDS011;8809;51.892;8.384;2023-11-21T11:43:52;8.82;;;5.50;;
17382;SDS011;8809;51.892;8.384;2023-11-21T11:46:19;8.93;;;5.53;;
17382;SDS011;8809;51.892;8.384;2023-11-21T11:48:48;6.95;;;4.93;;
17382;SDS011;8809;51.892;8.384;2023-11-21T11:51:29;7.22;;;4.20;;
17382;SDS011;8809;51.892;8.384;2023-11-21T11:53:57;8.40;;;5.47;;
17382;SDS011;8809;51.892;8.384;2023-11-21T11:56:26;5.72;;;4.55;;
17382;SDS011;8809;51.892;8.384;2023-11-21T11:58:57;7.07;;;4.47;;
17382;SDS011;8809;51.892;8.384;2023-11-21T12:01:29;7.00;;;4.50;;
17382;SDS011;8809;51.892;8.384;2023-11-21T12:06:56;5.78;;;4.20;;
17382;SDS011;8809;51.892;8.384;2023-11-21T12:09:31;5.68;;;4.60;;
17382;SDS011;8809;51.892;8.384;2023-11-21T12:12:00;5.45;;;4.00;;
17382;SDS011;8809;51.892;8.384;2023-11-21T12:14:28;6.50;;;4.95;;
17382;SDS011;8809;51.892;8.384;2023-11-21T12:16:57;7.20;;;5.30;;
17382;SDS011;8809;51.892;8.384;2023-11-21T12:19:25;7.78;;;5.22;;
17382;SDS011;8809;51.892;8.384;2023-11-21T12:21:52;7.82;;;5.43;;
17382;SDS011;8809;51.892;8.384;2023-11-21T12:24:21;6.60;;;5.57;;
17382;SDS011;8809;51.892;8.384;2023-11-21T12:26:49;6.78;;;5.30;;
17382;SDS011;8809;51.892;8.384;2023-11-21T12:29:17;9.25;;;6.70;;
17382;SDS011;8809;51.892;8.384;2023-11-21T12:31:45;8.82;;;5.75;;
17382;SDS011;8809;51.892;8.384;2023-11-21T12:34:15;8.13;;;5.20;;
17382;SDS011;8809;51.892;8.384;2023-11-21T12:36:43;8.88;;;6.20;;
17382;SDS011;8809;51.892;8.384;2023-11-21T12:39:11;12.68;;;8.10;;
17382;SDS011;8809;51.892;8.384;2023-11-21T12:41:40;13.63;;;8.05;;
17382;SDS011;8809;51.892;8.384;2023-11-21T12:44:09;10.63;;;7.13;;
17382;SDS011;8809;51.892;8.384;2023-11-21T12:46:42;11.23;;;7.63;;
17382;SDS011;8809;51.892;8.384;2023-11-21T12:49:12;12.48;;;8.20;;
17382;SDS011;8809;51.892;8.384;2023-11-21T12:51:45;9.68;;;7.07;;
17382;SDS011;8809;51.892;8.384;2023-11-21T12:54:13;8.82;;;7.05;;
17382;SDS011;8809;51.892;8.384;2023-11-21T12:56:41;12.13;;;8.07;;
17382;SDS011;8809;51.892;8.384;2023-11-21T12:59:12;10.13;;;7.65;;
17382;SDS011;8809;51.892;8.384;2023-11-21T13:01:43;9.10;;;7.18;;
17382;SDS011;8809;51.892;8.384;2023-11-21T13:04:10;8.77;;;6.18;;
17382;SDS011;8809;51.892;8.384;2023-11-21T13:06:37;9.27;;;6.82;;
17382;SDS011;8809;51.892;8.384;2023-11-21T13:09:06;11.18;;;7.80;;
17382;SDS011;8809;51.892;8.384;2023-11-21T13:11:36;10.05;;;7.35;;
17382;SDS011;8809;51.892;8.384;2023-11-21T13:14:06;10.50;;;7.40;;
17382;SDS011;8809;51.892;8.384;2023-11-21T13:16:37;8.82;;;6.93;;
17382;SDS011;8809;51.892;8.384;2023-11-21T13:19:12;8.77;;;6.65;;
17382;SDS011;8809;51.892;8.384;2023-11-21T13:21:39;9.65;;;6.47;;
17382;SDS011;8809;51.892;8.384;2023-11-21T13:24:07;10.13;;;7.13;;
17382;SDS011;8809;51.892;8.384;2023-11-21T13:26:38;11.18;;;7.88;;
17382;SDS011;8809;51.892;8.384;2023-11-21T13:29:06;10.52;;;7.80;;
17382;SDS011;8809;51.892;8.384;2023-11-21T13:31:33;10.60;;;6.95;;
17382;SDS011;8809;51.892;8.384;2023-11-21T13:34:02;8.70;;;6.22;;
17382;SDS011;8809;51.892;8.384;2023-11-21T13:36:35;9.25;;;6.22;;
17382;SDS011;8809;51.892;8.384;2023-11-21T13:39:02;8.48;;;6.05;;
17382;SDS011;8809;51.892;8.384;2023-11-21T13:41:33;7.40;;;6.00;;
17382;SDS011;8809;51.892;8.384;2023-11-21T13:44:00;10.38;;;7.43;;
17382;SDS011;8809;51.892;8.384;2023-11-21T13:46:41;7.30;;;5.90;;
17382;SDS011;8809;51.892;8.384;2023-11-21T13:49:08;8.32;;;6.25;;
17382;SDS011;8809;51.892;8.384;2023-11-21T13:51:37;7.90;;;6.15;;
17382;SDS011;8809;51.892;8.384;2023-11-21T13:54:10;8.57;;;6.22;;
17382;SDS011;8809;51.892;8.384;2023-11-21T13:56:37;7.80;;;5.60;;
17382;SDS011;8809;51.892;8.384;2023-11-21T13:59:06;8.38;;;6.53;;
17382;SDS011;8809;51.892;8.384;2023-11-21T14:01:44;8.65;;;5.85;;
17382;SDS011;8809;51.892;8.384;2023-11-21T14:04:26;9.32;;;6.85;;
17382;SDS011;8809;51.892;8.384;2023-11-21T14:07:20;8.25;;;6.05;;
17382;SDS011;8809;51.892;8.384;2023-11-21T14:09:56;7.68;;;6.07;;
17382;SDS011;8809;51.892;8.384;2023-11-21T14:12:26;8.40;;;6.15;;
17382;SDS011;8809;51.892;8.384;2023-11-21T14:14:55;9.00;;;6.20;;
17382;SDS011;8809;51.892;8.384;2023-11-21T14:17:23;7.95;;;6.15;;
17382;SDS011;8809;51.892;8.384;2023-11-21T14:19:50;7.55;;;6.30;;
17382;SDS011;8809;51.892;8.384;2023-11-21T14:22:20;7.18;;;5.90;;
17382;SDS011;8809;51.892;8.384;2023-11-21T14:24:47;6.43;;;5.00;;
17382;SDS011;8809;51.892;8.384;2023-11-21T14:27:15;7.30;;;5.53;;
17382;SDS011;8809;51.892;8.384;2023-11-21T14:29:42;6.40;;;4.97;;
17382;SDS011;8809;51.892;8.384;2023-11-21T14:32:10;7.45;;;5.80;;
17382;SDS011;8809;51.892;8.384;2023-11-21T14:34:39;7.75;;;5.60;;
17382;SDS011;8809;51.892;8.384;2023-11-21T14:37:08;7.13;;;5.72;;
17382;SDS011;8809;51.892;8.384;2023-11-21T14:39:40;8.15;;;5.85;;
17382;SDS011;8809;51.892;8.384;2023-11-21T14:42:10;7.35;;;5.03;;
17382;SDS011;8809;51.892;8.384;2023-11-21T14:44:40;8.52;;;5.72;;
17382;SDS011;8809;51.892;8.384;2023-11-21T14:47:08;5.97;;;4.97;;
17382;SDS011;8809;51.892;8.384;2023-11-21T14:49:41;8.25;;;6.32;;
17382;SDS011;8809;51.892;8.384;2023-11-21T14:52:19;6.95;;;5.45;;
17382;SDS011;8809;51.892;8.384;2023-11-21T14:55:01;7.90;;;5.50;;
17382;SDS011;8809;51.892;8.384;2023-11-21T14:57:50;6.72;;;5.10;;
17382;SDS011;8809;51.892;8.384;2023-11-21T15:00:18;7.97;;;5.30;;
17382;SDS011;8809;51.892;8.384;2023-11-21T15:03:11;7.97;;;5.53;;
17382;SDS011;8809;51.892;8.384;2023-11-21T15:05:59;8.82;;;6.25;;